Time;durP1;ratioP1;P1;durP2;ratioP2;P2;SDS_P1;SDS_P2;PMS_P1;PMS_P2;Temp;Humidity;BMP_temperature;BMP_pressure;BME280_temperature;BME280_humidity;BME280_pressure;Samples;Min_cycle;Max_cycle;Signal;HPM_P1;HPM_P2
2022/07/03 00:00:35;;;;;;;6.08;3.50;;;;;;;14.67;56.77;101130.29;1720169;83;21247;-53
2022/07/03 00:03:40;;;;;;;6.33;3.52;;;;;;;14.67;56.92;101126.66;1683865;81;21282;-53
2022/07/03 00:06:46;;;;;;;6.70;3.25;;;;;;;14.61;56.91;101119.14;1712195;84;21634;-54
2022/07/03 00:09:51;;;;;;;6.37;3.95;;;;;;;14.57;56.96;101121.95;1712163;84;21239;-54
2022/07/03 00:12:57;;;;;;;6.17;4.08;;;;;;;14.55;57.15;101120.75;1712185;84;21195;-53
2022/07/03 00:16:05;;;;;;;7.28;4.30;;;;;;;14.55;57.38;101115.75;1712317;84;21349;-53
2022/07/03 00:19:13;;;;;;;7.10;4.03;;;;;;;14.56;57.54;101120.20;1712178;84;21275;-54
2022/07/03 00:22:20;;;;;;;5.25;3.65;;;;;;;14.56;57.68;101118.32;1712339;83;21227;-54
2022/07/03 00:25:28;;;;;;;7.25;4.10;;;;;;;14.55;57.79;101122.13;1712194;84;21349;-54
2022/07/03 00:28:35;;;;;;;12.35;4.62;;;;;;;14.54;57.88;101115.42;1712218;84;21216;-53
2022/07/03 00:31:42;;;;;;;8.38;4.33;;;;;;;14.53;57.98;101110.94;1712297;84;21326;-54
2022/07/03 00:34:48;;;;;;;8.00;4.62;;;;;;;14.50;58.00;101110.80;1712291;84;21222;-54
2022/07/03 00:37:54;;;;;;;9.85;5.05;;;;;;;14.46;58.04;101106.67;1712161;84;21207;-54
2022/07/03 00:41:01;;;;;;;11.40;5.97;;;;;;;14.42;58.13;101113.61;1712258;84;21429;-54
2022/07/03 00:44:07;;;;;;;10.80;5.50;;;;;;;14.42;58.22;101126.00;1712177;84;21203;-54
2022/07/03 00:47:14;;;;;;;10.53;5.05;;;;;;;14.40;58.26;101121.70;1706753;83;21232;-54
2022/07/03 00:50:19;;;;;;;8.80;4.92;;;;;;;14.33;58.17;101123.48;1712137;84;21207;-55
2022/07/03 00:53:38;;;;;;;13.50;4.35;;;;;;;14.25;58.11;101124.40;1712043;84;21211;-55
2022/07/03 00:56:47;;;;;;;6.95;3.98;;;;;;;14.18;58.11;101121.98;1712243;84;21227;-54
2022/07/03 00:59:54;;;;;;;9.65;4.53;;;;;;;14.10;58.18;101116.52;1707345;83;21290;-54
2022/07/03 01:03:09;;;;;;;9.60;4.42;;;;;;;14.09;58.42;101119.45;1712121;84;21251;-54
2022/07/03 01:06:23;;;;;;;10.38;4.53;;;;;;;14.06;58.48;101122.58;1720074;80;21230;-54
2022/07/03 01:09:50;;;;;;;8.68;4.20;;;;;;;13.99;58.51;101128.45;1685534;85;21234;-53
2022/07/03 01:13:20;;;;;;;13.78;3.87;;;;;;;13.97;58.76;101120.91;1702709;84;21203;-53
2022/07/03 01:16:41;;;;;;;9.10;4.10;;;;;;;13.99;58.96;101127.08;1720104;83;21242;-54
2022/07/03 01:19:49;;;;;;;7.37;3.90;;;;;;;13.98;59.09;101121.23;1704632;84;21235;-55
2022/07/03 01:23:02;;;;;;;10.43;4.37;;;;;;;13.95;59.08;101131.23;1704529;84;21227;-54
2022/07/03 01:26:07;;;;;;;7.70;3.92;;;;;;;13.93;59.17;101134.68;1704699;84;21259;-55
2022/07/03 01:29:21;;;;;;;7.50;3.72;;;;;;;13.88;59.17;101135.22;1704641;84;21252;-53
2022/07/03 01:32:29;;;;;;;7.97;4.40;;;;;;;13.83;59.08;101131.27;1704760;84;21326;-54
2022/07/03 01:35:44;;;;;;;7.35;3.98;;;;;;;13.77;59.17;101124.61;1704574;84;21357;-54
2022/07/03 01:38:49;;;;;;;8.75;3.90;;;;;;;13.76;59.32;101127.03;1691992;83;21267;-54
2022/07/03 01:41:55;;;;;;;8.68;4.62;;;;;;;13.78;59.53;101132.36;1709105;84;21214;-54
2022/07/03 01:45:02;;;;;;;7.97;4.40;;;;;;;13.80;59.67;101126.13;1704599;84;21365;-54
2022/07/03 01:48:08;;;;;;;11.38;4.33;;;;;;;13.80;59.71;101123.38;1704635;84;21243;-54
2022/07/03 01:51:13;;;;;;;7.87;3.90;;;;;;;13.79;59.74;101126.67;1685316;85;21258;-54
2022/07/03 01:54:19;;;;;;;9.23;4.62;;;;;;;13.80;59.78;101128.87;1702575;84;21251;-54
2022/07/03 01:57:25;;;;;;;10.10;4.10;;;;;;;13.82;59.85;101130.95;1720236;83;21218;-55
2022/07/03 02:00:34;;;;;;;9.78;4.15;;;;;;;13.81;59.83;101125.95;1720004;83;21278;-55
2022/07/03 02:03:42;;;;;;;8.63;4.50;;;;;;;13.81;59.92;101126.48;1685370;85;21201;-54
2022/07/03 02:07:10;;;;;;;19.00;4.97;;;;;;;13.79;59.91;101127.17;1705259;83;21227;-54
2022/07/03 02:10:18;;;;;;;8.73;4.33;;;;;;;13.80;60.07;101126.13;1707042;84;21227;-53
2022/07/03 02:13:29;;;;;;;9.03;3.83;;;;;;;13.83;60.19;101124.39;1711624;84;21235;-53
2022/07/03 02:16:35;;;;;;;7.30;3.58;;;;;;;13.85;60.23;101121.82;1707147;84;21219;-55
2022/07/03 02:20:09;;;;;;;8.75;3.70;;;;;;;13.88;60.28;101128.34;1707462;84;21199;-55
2022/07/03 02:23:16;;;;;;;7.37;3.87;;;;;;;13.90;60.29;101115.77;1706553;84;21244;-55
2022/07/03 02:26:24;;;;;;;10.40;3.80;;;;;;;13.91;60.34;101120.23;1706683;84;21231;-54
2022/07/03 02:29:37;;;;;;;6.50;3.67;;;;;;;13.92;60.35;101113.70;1706745;84;21238;-54
2022/07/03 02:32:56;;;;;;;8.38;4.33;;;;;;;13.95;60.43;101113.34;1707029;83;21171;-55
2022/07/03 02:36:04;;;;;;;13.03;4.50;;;;;;;14.01;60.63;101100.23;1712267;84;21341;-54
2022/07/03 02:39:12;;;;;;;6.37;3.60;;;;;;;14.10;60.77;101104.64;1711486;84;21211;-55
2022/07/03 02:42:32;;;;;;;7.75;3.98;;;;;;;14.18;60.86;101108.22;1706316;84;21223;-54
2022/07/03 02:45:59;;;;;;;6.20;3.98;;;;;;;14.27;61.02;101093.92;1691459;84;21211;-55
2022/07/03 02:49:30;;;;;;;8.23;4.12;;;;;;;14.39;61.08;101095.20;1706497;84;21239;-54
2022/07/03 02:52:49;;;;;;;8.55;4.37;;;;;;;14.46;61.05;101100.33;1697016;84;21191;-54
2022/07/03 02:55:55;;;;;;;10.82;7.50;;;;;;;14.56;61.13;101099.03;1706002;84;21731;-55
2022/07/03 02:59:17;;;;;;;10.20;5.05;;;;;;;14.70;61.27;101104.25;1706267;84;21254;-54
2022/07/03 03:03:02;;;;;;;11.05;4.47;;;;;;;14.79;61.32;101092.97;1706028;83;21172;-55
2022/07/03 03:06:11;;;;;;;10.32;4.45;;;;;;;14.90;61.28;101093.06;1706539;84;21235;-55
2022/07/03 03:09:20;;;;;;;7.85;4.17;;;;;;;15.03;61.28;101102.08;1657115;85;21325;-54
2022/07/03 03:12:31;;;;;;;8.65;4.83;;;;;;;15.12;61.31;101094.91;1711671;83;21286;-54
2022/07/03 03:15:37;;;;;;;7.97;4.80;;;;;;;15.21;61.33;101094.28;1711823;84;21243;-55
2022/07/03 03:18:46;;;;;;;7.55;4.22;;;;;;;15.29;61.31;101092.31;1712163;84;21223;-56
2022/07/03 03:22:13;;;;;;;8.18;4.55;;;;;;;15.34;61.28;101090.36;1712054;84;21171;-53
2022/07/03 03:25:20;;;;;;;7.87;4.50;;;;;;;15.37;61.28;101086.70;1698836;84;21208;-53
2022/07/03 03:28:26;;;;;;;9.08;4.95;;;;;;;15.48;61.42;101084.88;1712206;84;21388;-54
2022/07/03 03:31:31;;;;;;;8.50;4.50;;;;;;;15.58;61.41;101088.22;1712200;84;21223;-55
2022/07/03 03:34:39;;;;;;;10.18;4.62;;;;;;;15.67;61.43;101087.06;1712319;84;21377;-55
2022/07/03 03:37:48;;;;;;;9.90;5.12;;;;;;;15.77;61.40;101094.54;1712140;84;21255;-54
2022/07/03 03:40:53;;;;;;;10.23;4.72;;;;;;;15.85;61.32;101095.81;1712195;84;21195;-54
2022/07/03 03:44:02;;;;;;;8.93;4.78;;;;;;;15.95;61.37;101098.28;1690524;84;21283;-54
2022/07/03 03:47:10;;;;;;;10.05;4.87;;;;;;;16.04;61.44;101101.25;1712191;84;21207;-54
2022/07/03 03:50:18;;;;;;;9.88;5.08;;;;;;;16.17;61.51;101103.63;1689680;84;21183;-55
2022/07/03 03:53:24;;;;;;;9.15;5.20;;;;;;;16.29;61.50;101103.99;1712177;84;21582;-55
2022/07/03 03:56:32;;;;;;;6.67;4.47;;;;;;;16.40;61.51;101106.24;1712218;84;21195;-55
2022/07/03 03:59:39;;;;;;;7.80;5.20;;;;;;;16.49;61.51;101101.48;1712178;84;21259;-54
2022/07/03 04:02:45;;;;;;;9.48;5.53;;;;;;;16.59;61.47;101096.47;1712154;84;21204;-55
2022/07/03 04:05:53;;;;;;;9.38;5.20;;;;;;;16.69;61.55;101092.86;1712186;84;21203;-55
2022/07/03 04:09:00;;;;;;;10.53;5.08;;;;;;;16.80;61.52;101100.63;1711437;83;21258;-54
2022/07/03 04:12:06;;;;;;;11.57;5.67;;;;;;;16.91;61.60;101096.80;1712278;84;21349;-55
2022/07/03 04:15:14;;;;;;;7.92;4.95;;;;;;;17.06;61.65;101096.72;1712289;84;21195;-54
2022/07/03 04:18:22;;;;;;;7.08;5.03;;;;;;;17.20;61.67;101105.45;1712168;84;21281;-55
2022/07/03 04:21:32;;;;;;;9.15;5.10;;;;;;;17.37;61.71;101106.84;1712270;84;21184;-54
2022/07/03 04:24:42;;;;;;;7.55;4.95;;;;;;;17.51;61.68;101101.23;1712154;84;21262;-55
2022/07/03 04:27:49;;;;;;;7.15;4.97;;;;;;;17.66;61.70;101102.50;1712319;84;21231;-54
2022/07/03 04:30:57;;;;;;;6.67;4.17;;;;;;;17.81;61.73;101101.30;1711734;84;21179;-55
2022/07/03 04:34:04;;;;;;;9.83;5.00;;;;;;;17.96;61.73;101104.45;1712202;84;21262;-55
2022/07/03 04:37:11;;;;;;;8.48;4.53;;;;;;;18.10;61.73;101099.30;1712190;84;21211;-54
2022/07/03 04:40:18;;;;;;;8.45;4.78;;;;;;;18.23;61.71;101104.89;1712196;84;21195;-54
2022/07/03 04:43:28;;;;;;;7.03;4.83;;;;;;;18.34;61.69;101106.54;1712190;84;21234;-54
2022/07/03 04:46:35;;;;;;;6.35;4.42;;;;;;;18.47;61.66;101102.42;1712311;84;21854;-54
2022/07/03 04:49:42;;;;;;;6.05;4.47;;;;;;;18.60;61.65;101094.14;1712259;84;21195;-55
2022/07/03 04:52:49;;;;;;;7.65;5.15;;;;;;;18.73;61.69;101096.08;1712212;84;21373;-54
2022/07/03 04:55:56;;;;;;;6.25;4.62;;;;;;;18.87;61.75;101098.66;1712259;84;21345;-54
2022/07/03 04:59:05;;;;;;;5.45;4.22;;;;;;;19.01;61.75;101098.98;1712233;84;21195;-54
2022/07/03 05:02:11;;;;;;;7.30;4.60;;;;;;;19.15;61.74;101096.52;1712097;84;21255;-55
2022/07/03 05:05:18;;;;;;;10.03;4.47;;;;;;;19.28;61.76;101097.95;1711709;82;21207;-55
2022/07/03 05:08:28;;;;;;;11.63;4.58;;;;;;;19.45;61.78;101101.67;1704364;83;21233;-54
2022/07/03 05:11:37;;;;;;;5.67;3.77;;;;;;;19.58;61.71;101091.93;1682705;85;21630;-55
2022/07/03 05:14:45;;;;;;;4.75;3.40;;;;;;;19.72;61.63;101097.24;1682898;85;21290;-55
2022/07/03 05:17:51;;;;;;;6.85;4.00;;;;;;;19.87;61.56;101088.66;1713299;82;21202;-55
2022/07/03 05:20:58;;;;;;;6.62;3.85;;;;;;;20.01;61.45;101076.41;1735755;82;21276;-55
2022/07/03 05:24:05;;;;;;;5.28;3.62;;;;;;;20.17;61.46;101087.06;1735410;82;21706;-56
2022/07/03 05:27:13;;;;;;;5.55;3.55;;;;;;;20.32;61.31;101078.74;1735307;82;21256;-55
2022/07/03 05:30:20;;;;;;;11.00;3.20;;;;;;;20.50;61.21;101082.17;1735924;82;21384;-56
2022/07/03 05:33:28;;;;;;;5.30;2.98;;;;;;;20.64;61.08;101086.58;1735769;82;21209;-55
2022/07/03 05:36:36;;;;;;;6.40;3.20;;;;;;;20.77;60.93;101080.92;1735774;82;21884;-57
2022/07/03 05:39:44;;;;;;;7.05;3.15;;;;;;;20.89;60.75;101084.67;1735962;82;21209;-56
2022/07/03 05:42:53;;;;;;;5.65;2.80;;;;;;;20.99;60.57;101076.71;1736352;82;21220;-56
2022/07/03 05:46:00;;;;;;;7.33;3.17;;;;;;;21.11;60.43;101076.80;1736699;82;21197;-54
2022/07/03 05:49:07;;;;;;;4.22;2.90;;;;;;;21.20;60.29;101074.06;1736170;82;21280;-55
2022/07/03 05:52:16;;;;;;;5.92;3.05;;;;;;;21.29;60.14;101077.73;1736311;82;21225;-55
2022/07/03 05:55:23;;;;;;;4.00;2.60;;;;;;;21.39;60.04;101073.86;1736553;82;21190;-55
2022/07/03 05:58:31;;;;;;;6.35;2.67;;;;;;;21.48;59.92;101064.14;1736664;82;21225;-55
2022/07/03 06:01:39;;;;;;;6.45;2.80;;;;;;;21.55;59.80;101069.65;1736735;82;21201;-54
2022/07/03 06:04:45;;;;;;;6.05;2.80;;;;;;;21.63;59.66;101074.36;1736655;82;21236;-55
2022/07/03 06:07:54;;;;;;;5.67;2.92;;;;;;;21.69;59.54;101067.85;1736767;82;21741;-55
2022/07/03 06:11:03;;;;;;;7.47;3.05;;;;;;;21.78;59.43;101070.70;1739289;81;21319;-56
2022/07/03 06:14:11;;;;;;;4.92;2.60;;;;;;;21.88;59.37;101074.34;1745138;82;21260;-56
2022/07/03 06:17:18;;;;;;;3.70;2.25;;;;;;;21.97;59.24;101072.40;1745141;82;21244;-56
2022/07/03 06:20:27;;;;;;;6.40;2.58;;;;;;;22.08;59.12;101067.44;1745068;82;21208;-54
2022/07/03 06:23:38;;;;;;;5.40;2.50;;;;;;;22.16;58.88;101059.28;1745204;82;21235;-53
2022/07/03 06:26:46;;;;;;;7.45;2.55;;;;;;;22.26;58.78;101060.97;1743980;82;21216;-54
2022/07/03 06:29:54;;;;;;;4.35;2.00;;;;;;;22.36;58.63;101070.17;1691330;85;21202;-54
2022/07/03 06:33:02;;;;;;;5.20;2.15;;;;;;;22.45;58.46;101068.22;1691157;85;21221;-55
2022/07/03 06:36:11;;;;;;;5.05;1.90;;;;;;;22.52;58.30;101056.42;1713313;82;21262;-55
2022/07/03 06:39:21;;;;;;;6.83;2.17;;;;;;;22.62;58.10;101061.44;1719598;82;21218;-56
2022/07/03 06:42:29;;;;;;;5.25;2.30;;;;;;;22.68;57.79;101052.10;1719900;82;21200;-55
2022/07/03 06:45:36;;;;;;;3.35;2.10;;;;;;;22.72;57.61;101049.98;1716080;83;21228;-55
2022/07/03 06:48:51;;;;;;;3.40;2.30;;;;;;;22.77;57.50;101057.10;1718902;83;21262;-56
2022/07/03 06:52:05;;;;;;;7.20;2.58;;;;;;;22.84;57.25;101054.20;1719124;83;21207;-54
2022/07/03 06:55:14;;;;;;;3.02;2.45;;;;;;;22.89;57.09;101049.63;1718994;83;21731;-55
2022/07/03 06:58:21;;;;;;;3.98;2.30;;;;;;;22.95;56.90;101050.59;1719940;83;21767;-55
2022/07/03 07:01:28;;;;;;;3.62;2.27;;;;;;;22.99;56.67;101043.45;1667172;84;21245;-56
2022/07/03 07:04:38;;;;;;;3.75;2.40;;;;;;;23.01;56.47;101042.63;1702116;84;21239;-55
2022/07/03 07:07:45;;;;;;;4.00;2.47;;;;;;;23.07;56.38;101043.09;1726657;82;22096;-55
2022/07/03 07:10:55;;;;;;;5.08;2.72;;;;;;;23.13;56.25;101043.52;1690702;85;21282;-56
2022/07/03 07:14:01;;;;;;;3.58;2.52;;;;;;;23.17;56.09;101033.01;1678758;85;21294;-55
2022/07/03 07:17:08;;;;;;;4.12;2.55;;;;;;;23.23;55.95;101032.03;1678176;85;21278;-57
2022/07/03 07:20:16;;;;;;;6.65;2.87;;;;;;;23.31;55.81;101032.24;1678607;85;21210;-55
2022/07/03 07:23:23;;;;;;;4.33;2.60;;;;;;;23.37;55.70;101027.10;1678070;85;21438;-55
2022/07/03 07:26:32;;;;;;;6.65;2.83;;;;;;;23.42;55.55;101028.05;1677943;85;21344;-54
2022/07/03 07:29:40;;;;;;;5.58;3.25;;;;;;;23.46;55.33;101021.44;1678638;85;21371;-55
2022/07/03 07:32:47;;;;;;;4.58;3.02;;;;;;;23.50;55.22;101017.90;1678799;85;21372;-55
2022/07/03 07:35:56;;;;;;;3.67;2.83;;;;;;;23.60;55.17;101025.67;1678548;85;21246;-57
2022/07/03 07:39:06;;;;;;;4.35;2.60;;;;;;;23.68;54.98;101030.88;1684619;83;21305;-55
2022/07/03 07:42:15;;;;;;;9.08;2.80;;;;;;;23.71;54.70;101030.39;1706528;84;21771;-55
2022/07/03 07:45:22;;;;;;;5.78;2.75;;;;;;;23.73;54.55;101025.41;1706519;84;21798;-56
2022/07/03 07:48:31;;;;;;;8.25;3.25;;;;;;;23.73;54.38;101020.35;1703311;84;21234;-56
2022/07/03 07:51:40;;;;;;;3.35;2.47;;;;;;;23.76;54.28;101022.12;1706192;84;21198;-56
2022/07/03 07:54:48;;;;;;;6.10;3.02;;;;;;;23.84;54.17;101019.48;1696169;83;21216;-57
2022/07/03 07:57:55;;;;;;;4.37;2.67;;;;;;;23.89;54.04;101020.45;1691724;85;21231;-56
2022/07/03 08:07:50;;;;;;;6.75;2.60;;;;;;;24.06;53.57;101010.20;1682600;83;21225;-56
2022/07/03 08:10:58;;;;;;;6.65;2.92;;;;;;;24.14;53.35;101017.34;1705294;84;21291;-56
2022/07/03 08:14:04;;;;;;;7.87;2.90;;;;;;;24.18;53.26;101011.00;1641161;86;21281;-56
2022/07/03 08:17:12;;;;;;;5.00;2.90;;;;;;;24.27;53.13;101009.52;1668990;85;21235;-56
2022/07/03 08:20:19;;;;;;;4.15;2.42;;;;;;;24.36;53.00;101012.21;1670177;86;21239;-56
2022/07/03 08:23:24;;;;;;;4.00;2.37;;;;;;;24.44;52.73;101007.61;1670415;86;21258;-57
2022/07/03 08:26:36;;;;;;;4.20;2.70;;;;;;;24.47;52.49;101004.30;1702290;84;21271;-56
2022/07/03 08:29:46;;;;;;;7.05;2.83;;;;;;;24.50;52.32;101009.39;1702452;84;21218;-55
2022/07/03 08:32:58;;;;;;;5.72;2.47;;;;;;;24.55;52.14;101012.29;1702388;82;21232;-57
2022/07/03 08:36:08;;;;;;;5.47;2.85;;;;;;;24.57;51.95;101001.70;1701714;84;21235;-56
2022/07/03 08:39:16;;;;;;;4.78;2.83;;;;;;;24.60;51.83;101003.98;1698960;82;21233;-55
2022/07/03 08:42:23;;;;;;;3.37;2.22;;;;;;;24.64;51.70;101007.97;1739117;82;21208;-55
2022/07/03 08:45:33;;;;;;;3.00;2.33;;;;;;;24.70;51.51;101005.61;1701834;82;21189;-56
2022/07/03 08:48:38;;;;;;;5.15;2.55;;;;;;;24.78;51.28;100994.53;1714862;83;21219;-56
2022/07/03 08:51:45;;;;;;;3.42;2.40;;;;;;;24.83;51.13;100993.23;1709198;82;21193;-54
2022/07/03 08:54:52;;;;;;;6.08;2.50;;;;;;;24.89;50.94;100993.61;1714920;82;21907;-55
2022/07/03 08:57:59;;;;;;;3.83;2.50;;;;;;;24.92;50.83;101007.96;1705625;83;21267;-55
2022/07/03 09:01:09;;;;;;;3.90;2.30;;;;;;;24.98;50.64;100992.06;1701606;84;21346;-56
2022/07/03 09:04:19;;;;;;;5.35;2.30;;;;;;;25.04;50.47;100990.49;1701664;84;21377;-56
2022/07/03 09:07:26;;;;;;;5.47;2.20;;;;;;;25.13;50.41;100986.72;1701224;84;21626;-56
2022/07/03 09:10:33;;;;;;;3.27;2.40;;;;;;;25.24;50.26;100993.32;1701863;84;21349;-56
2022/07/03 09:13:39;;;;;;;6.00;2.75;;;;;;;25.33;50.04;100984.76;1701778;82;21225;-56
2022/07/03 09:16:49;;;;;;;5.17;2.50;;;;;;;25.40;49.87;100988.27;1701476;84;21385;-56
2022/07/03 09:19:56;;;;;;;4.92;2.33;;;;;;;25.45;49.72;100979.94;1701638;84;21403;-57
2022/07/03 09:23:02;;;;;;;3.70;2.33;;;;;;;25.50;49.54;100995.44;1702245;84;21741;-57
2022/07/03 09:26:10;;;;;;;5.65;2.22;;;;;;;25.52;49.28;100989.86;1686080;84;21227;-55
2022/07/03 09:29:19;;;;;;;3.45;2.08;;;;;;;25.55;49.05;100986.53;1699307;82;21847;-55
2022/07/03 09:32:25;;;;;;;3.77;2.33;;;;;;;25.59;48.84;100978.45;1668627;84;21220;-54
2022/07/03 09:35:35;;;;;;;3.83;1.90;;;;;;;25.63;48.65;100983.28;1701672;84;21228;-56
2022/07/03 09:38:49;;;;;;;3.62;2.10;;;;;;;25.71;48.49;100978.63;1701374;84;21232;-56
2022/07/03 09:42:09;;;;;;;3.02;2.10;;;;;;;25.75;48.24;100968.56;1671518;84;21204;-55
2022/07/03 09:45:17;;;;;;;3.95;2.02;;;;;;;25.80;48.09;100960.21;1702026;84;21219;-58
2022/07/03 09:48:32;;;;;;;4.65;1.90;;;;;;;25.90;47.92;100956.68;1701224;84;21299;-55
2022/07/03 09:51:40;;;;;;;4.58;1.77;;;;;;;25.98;47.81;100979.53;1701419;84;21258;-57
2022/07/03 09:54:49;;;;;;;2.72;1.80;;;;;;;26.04;47.53;100956.59;1687160;83;21240;-56
2022/07/03 09:58:05;;;;;;;3.90;2.05;;;;;;;26.10;47.35;100953.59;1673769;85;21219;-55
2022/07/03 10:01:27;;;;;;;3.00;1.65;;;;;;;26.23;47.17;100953.72;1674022;86;21215;-56
2022/07/03 10:04:37;;;;;;;3.00;1.70;;;;;;;26.33;47.04;100956.65;1674501;86;21587;-54
2022/07/03 10:07:58;;;;;;;4.25;1.87;;;;;;;26.42;46.84;100957.30;1674072;86;21227;-56
2022/07/03 10:11:05;;;;;;;1.92;1.52;;;;;;;26.45;46.62;100950.30;1673202;85;21279;-55
2022/07/03 10:14:15;;;;;;;4.08;2.10;;;;;;;26.44;46.25;100946.66;1673846;86;21369;-56
2022/07/03 10:17:21;;;;;;;3.90;1.70;;;;;;;26.48;46.15;100937.16;1673913;86;21267;-56
2022/07/03 10:20:50;;;;;;;3.40;1.60;;;;;;;26.61;46.05;100938.09;1674218;86;21720;-56
2022/07/03 10:24:01;;;;;;;5.03;1.90;;;;;;;26.75;46.01;100933.75;1650657;86;21239;-56
2022/07/03 10:27:07;;;;;;;4.90;1.75;;;;;;;26.94;45.84;100939.81;1673654;86;21357;-56
2022/07/03 10:30:16;;;;;;;2.72;1.80;;;;;;;27.01;45.56;100929.17;1654485;86;21235;-54
2022/07/03 10:33:26;;;;;;;2.77;1.95;;;;;;;27.04;45.30;100925.27;1674290;86;21247;-54
2022/07/03 10:36:36;;;;;;;4.95;1.90;;;;;;;27.06;45.09;100924.45;1674071;86;21255;-54
2022/07/03 10:44:45;;;;;;;4.42;2.02;;;;;;;27.11;44.97;100911.84;1674168;86;21326;-55
2022/07/03 10:46:38;;;;;;;3.22;1.70;;;;;;;27.27;44.53;100913.66;1674006;86;21775;-54
2022/07/03 10:49:44;;;;;;;3.30;1.67;;;;;;;27.33;44.51;100906.94;1673577;86;21247;-56
2022/07/03 10:52:51;;;;;;;2.25;1.72;;;;;;;27.52;44.51;100904.48;1658109;86;21211;-56
2022/07/03 10:56:11;;;;;;;3.55;2.00;;;;;;;27.71;44.23;100908.50;1674128;86;21448;-54
2022/07/03 10:59:17;;;;;;;3.95;1.90;;;;;;;27.72;43.85;100904.01;1674013;86;21743;-55
2022/07/03 11:02:33;;;;;;;4.05;1.85;;;;;;;27.73;43.53;100902.88;1680856;82;21256;-54
2022/07/03 11:05:46;;;;;;;3.42;2.35;;;;;;;27.75;43.32;100901.19;1673892;86;21239;-56
2022/07/03 11:09:12;;;;;;;3.50;1.80;;;;;;;27.75;43.09;100895.01;1673435;86;21231;-55
2022/07/03 11:12:18;;;;;;;4.87;1.98;;;;;;;27.85;43.13;100893.64;1673635;86;21243;-55
2022/07/03 11:15:46;;;;;;;4.85;1.87;;;;;;;28.01;42.99;100895.11;1673257;86;21234;-56
2022/07/03 11:18:51;;;;;;;4.30;2.02;;;;;;;28.14;42.95;100891.77;1678579;85;21862;-55
2022/07/03 11:21:59;;;;;;;4.62;2.12;;;;;;;28.19;42.63;100897.41;1669831;84;21218;-58
2022/07/03 11:25:07;;;;;;;3.70;2.15;;;;;;;28.21;42.47;100896.58;1694346;82;21240;-58
2022/07/03 11:28:13;;;;;;;4.87;1.90;;;;;;;28.24;42.33;100881.94;1746655;82;21533;-56
2022/07/03 11:31:25;;;;;;;4.42;1.98;;;;;;;28.26;42.12;100886.73;1746724;82;21712;-57
2022/07/03 11:34:31;;;;;;;4.15;2.12;;;;;;;28.27;41.98;100882.23;1710603;83;21341;-57
2022/07/03 11:37:38;;;;;;;5.05;1.87;;;;;;;28.34;41.85;100881.37;1710860;84;21238;-55
2022/07/03 11:40:48;;;;;;;4.55;1.70;;;;;;;28.36;41.55;100876.31;1708781;84;21236;-57
2022/07/03 11:44:06;;;;;;;3.80;1.77;;;;;;;28.37;41.37;100879.98;1655098;86;21223;-54
2022/07/03 11:47:16;;;;;;;2.02;1.57;;;;;;;28.37;41.22;100869.54;1706514;84;21281;-57
2022/07/03 11:50:22;;;;;;;2.77;1.90;;;;;;;28.35;41.11;100863.92;1706923;84;21254;-56
2022/07/03 11:53:34;;;;;;;3.55;1.52;;;;;;;28.40;41.01;100872.38;1706573;84;21241;-55
2022/07/03 11:56:42;;;;;;;2.62;1.87;;;;;;;28.42;40.86;100872.92;1706818;84;21278;-57
2022/07/03 11:59:50;;;;;;;3.15;2.00;;;;;;;28.43;40.75;100874.04;1706290;84;21416;-55
2022/07/03 12:03:01;;;;;;;4.95;1.72;;;;;;;28.46;40.62;100876.88;1706795;84;21812;-55
2022/07/03 12:06:08;;;;;;;8.50;1.80;;;;;;;28.50;40.58;100870.98;1706961;84;21210;-57
2022/07/03 12:09:34;;;;;;;4.58;1.57;;;;;;;28.52;40.42;100875.78;1706710;84;21777;-56
2022/07/03 12:12:45;;;;;;;4.08;1.90;;;;;;;28.49;40.27;100870.16;1706776;84;21309;-57
2022/07/03 12:15:54;;;;;;;5.42;2.05;;;;;;;28.42;40.08;100860.23;1690107;85;21274;-55
2022/07/03 12:19:00;;;;;;;3.33;1.80;;;;;;;28.35;39.96;100861.10;1687903;83;21267;-56
2022/07/03 12:22:08;;;;;;;3.77;2.00;;;;;;;28.32;39.82;100860.26;1689703;84;21208;-57
2022/07/03 12:25:20;;;;;;;2.80;1.72;;;;;;;28.31;39.71;100868.41;1690706;84;21284;-56
2022/07/03 12:28:28;;;;;;;4.15;2.35;;;;;;;28.33;39.69;100857.71;1687687;83;21596;-56
2022/07/03 12:31:34;;;;;;;2.90;1.98;;;;;;;28.41;39.59;100856.59;1687787;83;21244;-56
2022/07/03 12:34:40;;;;;;;2.35;1.62;;;;;;;28.45;39.51;100851.22;1685643;83;21245;-56
2022/07/03 12:37:50;;;;;;;2.52;1.95;;;;;;;28.49;39.38;100860.84;1685853;83;21213;-57
2022/07/03 12:41:11;;;;;;;2.95;1.62;;;;;;;28.53;39.24;100846.46;1685728;83;21221;-57
2022/07/03 12:44:20;;;;;;;2.08;1.65;;;;;;;28.50;39.10;100861.98;1685543;83;21260;-55
2022/07/03 12:47:26;;;;;;;3.20;1.80;;;;;;;28.54;38.98;100843.36;1684787;83;21241;-56
2022/07/03 12:50:55;;;;;;;3.65;2.02;;;;;;;28.55;38.87;100846.48;1684484;84;21382;-56
2022/07/03 12:54:05;;;;;;;4.45;1.70;;;;;;;28.55;38.73;100835.21;1687663;83;21241;-57
2022/07/03 13:00:52;;;;;;;4.03;1.77;;;;;;;28.60;38.57;100845.07;1685961;84;21217;-57
2022/07/03 13:04:00;;;;;;;5.28;1.95;;;;;;;28.53;38.32;100836.05;1693074;83;21204;-55
2022/07/03 13:07:10;;;;;;;5.90;2.00;;;;;;;28.54;38.29;100840.55;1702191;84;21271;-55
2022/07/03 13:10:17;;;;;;;3.87;2.05;;;;;;;28.54;38.13;100839.72;1673786;85;21214;-56
2022/07/03 13:13:26;;;;;;;3.60;1.80;;;;;;;28.54;38.05;100821.41;1673635;85;21369;-56
2022/07/03 13:16:33;;;;;;;2.05;1.70;;;;;;;28.57;37.96;100828.73;1700938;83;21204;-56
2022/07/03 13:19:42;;;;;;;5.10;1.60;;;;;;;28.54;37.85;100825.05;1687689;83;21243;-56
2022/07/03 13:22:47;;;;;;;3.12;1.85;;;;;;;28.55;37.68;100833.80;1710854;84;21226;-57
2022/07/03 13:25:57;;;;;;;6.12;1.87;;;;;;;28.55;37.58;100822.53;1687165;84;21215;-55
2022/07/03 13:29:05;;;;;;;3.58;2.22;;;;;;;28.59;37.52;100825.63;1711894;84;21223;-57
2022/07/03 13:32:12;;;;;;;2.87;1.92;;;;;;;28.66;37.41;100826.17;1711638;84;21778;-56
2022/07/03 13:35:17;;;;;;;2.70;1.55;;;;;;;28.72;37.36;100826.44;1690181;84;21211;-56
2022/07/03 13:38:26;;;;;;;3.30;1.92;;;;;;;28.68;37.16;100821.95;1712151;84;21230;-56
2022/07/03 13:41:36;;;;;;;4.55;2.08;;;;;;;28.64;37.05;100825.05;1711776;83;21211;-56
2022/07/03 13:44:42;;;;;;;3.58;2.20;;;;;;;28.62;37.04;100821.66;1717624;82;21215;-55
2022/07/03 13:47:52;;;;;;;8.73;1.98;;;;;;;28.65;37.00;100823.94;1710909;82;21219;-57
2022/07/03 13:50:58;;;;;;;4.40;1.87;;;;;;;28.61;36.91;100817.16;1680104;85;21728;-57
2022/07/03 13:54:05;;;;;;;3.55;2.10;;;;;;;28.62;36.92;100816.61;1682390;85;21242;-57
2022/07/03 13:57:12;;;;;;;3.12;1.82;;;;;;;28.66;36.87;100814.34;1683047;85;21210;-57
2022/07/03 14:00:20;;;;;;;3.67;2.02;;;;;;;28.70;36.83;100814.62;1698142;82;21199;-55
2022/07/03 14:03:30;;;;;;;6.42;2.05;;;;;;;28.75;36.74;100816.00;1711677;84;21636;-54
2022/07/03 14:06:37;;;;;;;3.10;1.77;;;;;;;28.75;36.60;100811.77;1711135;84;21262;-56
2022/07/03 14:09:43;;;;;;;2.92;1.90;;;;;;;28.71;36.55;100807.30;1710513;84;21266;-55
2022/07/03 14:12:49;;;;;;;5.62;1.82;;;;;;;28.70;36.50;100809.81;1710393;84;21223;-57
2022/07/03 14:15:57;;;;;;;2.75;1.80;;;;;;;28.70;36.42;100803.35;1711455;82;21290;-56
2022/07/03 14:19:05;;;;;;;3.40;2.10;;;;;;;28.73;36.36;100802.78;1711145;82;21763;-58
2022/07/03 14:22:11;;;;;;;3.12;2.25;;;;;;;28.76;36.31;100797.42;1719595;83;21207;-56
2022/07/03 14:25:19;;;;;;;3.08;1.98;;;;;;;28.78;36.25;100792.91;1679538;85;21260;-53
2022/07/03 14:35:20;;;;;;;3.35;2.22;;;;;;;28.77;36.07;100793.46;1718473;83;21200;-54
2022/07/03 14:38:27;;;;;;;3.77;1.90;;;;;;;28.82;36.06;100791.19;1717892;83;21232;-53
2022/07/03 14:41:35;;;;;;;2.60;1.80;;;;;;;28.85;36.08;100778.78;1717776;83;21248;-54
2022/07/03 14:44:43;;;;;;;2.58;2.00;;;;;;;28.86;35.95;100788.09;1718604;83;21224;-54
2022/07/03 14:47:52;;;;;;;4.05;2.40;;;;;;;28.88;35.99;100781.58;1718499;83;21212;-53
2022/07/03 14:51:01;;;;;;;4.30;1.95;;;;;;;28.96;35.98;100785.22;1718582;83;21192;-54
2022/07/03 14:54:09;;;;;;;4.83;2.10;;;;;;;29.02;35.86;100781.25;1692123;83;21260;-54
2022/07/03 14:57:44;;;;;;;6.17;2.83;;;;;;;29.08;35.84;100773.92;1718571;83;21740;-53
2022/07/03 15:00:55;;;;;;;3.30;2.00;;;;;;;29.13;35.74;100792.80;1718451;83;21216;-54